createdAt,value
2019-03-31T00:00:36.283Z,13.80
2019-03-31T00:03:05.605Z,13.67
2019-03-31T00:05:37.256Z,14.17
2019-03-31T00:08:05.849Z,12.97
2019-03-31T00:10:35.305Z,12.95
2019-03-31T00:13:04.803Z,14.23
2019-03-31T00:15:34.217Z,13.10
2019-03-31T00:18:03.537Z,12.70
2019-03-31T00:20:32.742Z,13.30
2019-03-31T00:23:02.037Z,13.17
2019-03-31T00:25:31.360Z,13.33
2019-03-31T00:28:00.584Z,12.45
2019-03-31T00:30:30.372Z,12.75
2019-03-31T00:32:59.682Z,12.57
2019-03-31T00:35:28.918Z,13.13
2019-03-31T00:37:58.176Z,14.17
2019-03-31T00:40:27.642Z,12.80
2019-03-31T00:42:57.598Z,12.37
2019-03-31T00:45:27.025Z,13.07
2019-03-31T00:47:56.623Z,11.87
2019-03-31T00:50:26.800Z,14.57
2019-03-31T00:52:56.103Z,12.60
2019-03-31T00:55:25.366Z,13.13
2019-03-31T00:57:54.830Z,14.33
2019-03-31T01:00:42.458Z,12.17
2019-03-31T01:03:11.811Z,13.47
2019-03-31T01:05:42.641Z,12.10
2019-03-31T01:08:12.501Z,14.13
2019-03-31T01:10:42.121Z,11.03
2019-03-31T01:13:12.227Z,11.87
2019-03-31T01:15:41.916Z,12.47
2019-03-31T01:18:11.894Z,12.43
2019-03-31T01:20:41.414Z,11.47
2019-03-31T01:23:10.714Z,13.30
2019-03-31T01:25:40.077Z,11.27
2019-03-31T01:28:09.723Z,11.37
2019-03-31T01:30:39.312Z,12.33
2019-03-31T01:33:09.391Z,10.70
2019-03-31T01:35:38.898Z,12.33
2019-03-31T01:38:08.157Z,12.13
2019-03-31T01:40:37.641Z,12.47
2019-03-31T01:43:07.404Z,11.27
2019-03-31T01:45:37.710Z,11.93
2019-03-31T01:48:06.940Z,13.07
2019-03-31T01:50:36.209Z,14.00
2019-03-31T01:53:06.590Z,13.80
2019-03-31T01:55:36.285Z,12.90
2019-03-31T01:58:05.605Z,13.37
2019-03-31T02:00:38.696Z,13.23
2019-03-31T02:03:07.962Z,12.47
2019-03-31T02:05:37.472Z,12.80
2019-03-31T02:08:06.954Z,13.77
2019-03-31T02:10:36.490Z,14.60
2019-03-31T02:13:06.106Z,13.07
2019-03-31T02:15:35.489Z,13.80
2019-03-31T02:18:04.840Z,14.03
2019-03-31T02:20:34.355Z,13.63
2019-03-31T02:23:04.015Z,14.47
2019-03-31T02:25:33.524Z,15.07
2019-03-31T02:28:03.016Z,14.93
2019-03-31T02:30:32.526Z,15.87
2019-03-31T02:33:01.853Z,15.87
2019-03-31T02:35:31.093Z,14.80
2019-03-31T02:38:00.720Z,15.33
2019-03-31T02:40:30.032Z,16.17
2019-03-31T02:42:59.807Z,16.27
2019-03-31T02:45:29.913Z,15.30
2019-03-31T02:48:00.366Z,14.53
2019-03-31T02:50:48.496Z,17.03
2019-03-31T02:53:18.975Z,14.53
2019-03-31T02:55:48.964Z,15.13
2019-03-31T02:58:19.675Z,15.30
2019-03-31T03:00:48.948Z,14.30
2019-03-31T03:03:19.276Z,15.17
2019-03-31T03:05:49.263Z,15.43
2019-03-31T03:08:23.262Z,14.97
2019-03-31T03:10:53.999Z,15.23
2019-03-31T03:13:27.086Z,14.07
2019-03-31T03:16:19.752Z,15.37
2019-03-31T03:18:50.101Z,17.23
2019-03-31T03:21:23.786Z,15.00
2019-03-31T03:23:51.588Z,16.83
2019-03-31T03:26:20.978Z,17.10
2019-03-31T03:28:50.335Z,16.03
2019-03-31T03:31:20.124Z,15.37
2019-03-31T03:33:49.823Z,17.37
2019-03-31T03:36:19.449Z,16.07
2019-03-31T03:38:49.031Z,17.57
2019-03-31T03:41:18.276Z,17.37
2019-03-31T03:43:55.867Z,17.30
2019-03-31T03:46:18.742Z,16.93
2019-03-31T03:48:48.172Z,17.07
2019-03-31T03:51:17.492Z,17.33
2019-03-31T03:53:46.890Z,18.40
2019-03-31T03:56:16.181Z,18.00
2019-03-31T03:58:46.345Z,16.47
2019-03-31T04:01:23.683Z,18.33
2019-03-31T04:03:53.219Z,17.03
2019-03-31T04:06:22.689Z,17.57
2019-03-31T04:08:51.959Z,17.77
2019-03-31T04:11:23.842Z,18.77
2019-03-31T04:13:54.450Z,18.07
2019-03-31T04:16:24.515Z,18.77
2019-03-31T04:18:54.051Z,19.33
2019-03-31T04:21:23.438Z,19.40
2019-03-31T04:23:53.576Z,19.67
2019-03-31T04:26:22.891Z,18.63
2019-03-31T04:28:53.088Z,19.70
2019-03-31T04:31:22.494Z,18.50
2019-03-31T04:33:53.151Z,19.70
2019-03-31T04:36:22.692Z,20.17
2019-03-31T04:38:52.305Z,19.10
2019-03-31T04:41:21.651Z,19.07
2019-03-31T04:43:51.370Z,19.17
2019-03-31T04:46:21.199Z,20.40
2019-03-31T04:48:51.550Z,20.25
2019-03-31T04:51:21.469Z,21.50
2019-03-31T04:53:50.797Z,20.83
2019-03-31T04:56:20.269Z,21.40
2019-03-31T04:58:49.965Z,20.33
2019-03-31T05:01:19.958Z,20.57
2019-03-31T05:04:03.398Z,19.73
2019-03-31T05:06:20.175Z,21.63
2019-03-31T05:08:49.767Z,19.93
2019-03-31T05:11:19.234Z,21.07
2019-03-31T05:13:48.476Z,22.83
2019-03-31T05:16:18.064Z,21.47
2019-03-31T05:18:47.569Z,20.97
2019-03-31T05:21:17.095Z,20.57
2019-03-31T05:23:46.617Z,19.37
2019-03-31T05:26:16.100Z,20.73
2019-03-31T05:28:45.653Z,18.47
2019-03-31T05:31:14.975Z,19.73
2019-03-31T05:33:44.437Z,20.30
2019-03-31T05:36:13.718Z,21.40
2019-03-31T05:38:43.131Z,20.57
2019-03-31T05:41:12.353Z,20.57
2019-03-31T05:43:41.853Z,20.75
2019-03-31T05:46:11.116Z,18.62
2019-03-31T05:48:40.402Z,19.32
2019-03-31T05:51:10.788Z,19.90
2019-03-31T05:53:41.357Z,21.52
2019-03-31T05:56:10.980Z,19.77
2019-03-31T05:58:40.574Z,21.23
2019-03-31T06:01:10.227Z,21.40
2019-03-31T06:03:39.739Z,21.27
2019-03-31T06:06:09.232Z,19.93
2019-03-31T06:08:38.515Z,19.05
2019-03-31T06:11:07.788Z,18.63
2019-03-31T06:13:37.061Z,19.00
2019-03-31T06:16:06.362Z,19.87
2019-03-31T06:18:35.820Z,18.07
2019-03-31T06:21:06.046Z,17.20
2019-03-31T06:23:35.446Z,16.23
2019-03-31T06:26:04.786Z,16.90
2019-03-31T06:28:34.337Z,15.30
2019-03-31T06:31:04.004Z,15.23
2019-03-31T06:33:33.452Z,14.13
2019-03-31T06:36:03.237Z,14.00
2019-03-31T06:38:32.728Z,14.95
2019-03-31T06:41:05.030Z,15.35
2019-03-31T06:43:37.272Z,15.50
2019-03-31T06:46:06.858Z,15.25
2019-03-31T06:48:36.221Z,16.57
2019-03-31T06:51:05.613Z,14.65
2019-03-31T06:53:35.291Z,15.75
2019-03-31T06:56:06.343Z,16.87
2019-03-31T06:58:35.837Z,15.58
2019-03-31T07:01:05.411Z,13.83
2019-03-31T07:03:34.933Z,14.10
2019-03-31T07:06:04.481Z,15.75
2019-03-31T07:08:33.801Z,14.35
2019-03-31T07:11:03.071Z,12.68
2019-03-31T07:13:32.299Z,11.93
2019-03-31T07:16:01.729Z,11.85
2019-03-31T07:18:31.191Z,10.75
2019-03-31T07:21:00.938Z,11.08
2019-03-31T07:23:30.319Z,11.08
2019-03-31T07:25:59.705Z,10.90
2019-03-31T07:28:29.565Z,10.03
2019-03-31T07:30:59.547Z,11.05
2019-03-31T07:33:28.853Z,11.85
2019-03-31T07:35:58.084Z,11.03
2019-03-31T07:38:38.279Z,9.70
2019-03-31T07:41:11.955Z,10.08
2019-03-31T07:43:30.244Z,10.05
2019-03-31T07:45:59.835Z,11.70
2019-03-31T07:48:29.320Z,11.15
2019-03-31T07:50:58.547Z,11.22
2019-03-31T07:53:27.927Z,9.65
2019-03-31T07:55:57.166Z,10.67
2019-03-31T07:58:26.842Z,9.28
2019-03-31T08:00:56.131Z,8.60
2019-03-31T08:03:26.555Z,9.70
2019-03-31T08:05:59.061Z,8.70
2019-03-31T08:08:28.480Z,8.78
2019-03-31T08:10:57.718Z,9.08
2019-03-31T08:13:27.805Z,8.73
2019-03-31T08:15:57.124Z,7.37
2019-03-31T08:18:26.739Z,7.75
2019-03-31T08:20:58.894Z,7.40
2019-03-31T08:23:28.219Z,7.40
2019-03-31T08:25:57.697Z,6.70
2019-03-31T08:28:27.243Z,6.22
2019-03-31T08:30:58.189Z,7.47
2019-03-31T08:33:27.431Z,6.45
2019-03-31T08:35:56.718Z,6.20
2019-03-31T08:38:26.391Z,6.50
2019-03-31T08:40:58.283Z,7.00
2019-03-31T08:43:27.785Z,6.85
2019-03-31T08:45:57.240Z,6.33
2019-03-31T08:48:26.489Z,6.25
2019-03-31T08:50:56.045Z,6.93
2019-03-31T08:53:25.684Z,7.10
2019-03-31T08:55:54.981Z,6.90
2019-03-31T08:58:24.340Z,7.22
2019-03-31T09:01:00.618Z,7.97
2019-03-31T09:03:29.883Z,7.62
2019-03-31T09:06:02.021Z,6.95
2019-03-31T09:08:30.458Z,6.53
2019-03-31T09:10:59.832Z,7.87
2019-03-31T09:13:29.073Z,8.10
2019-03-31T09:15:58.361Z,8.03
2019-03-31T09:18:27.673Z,7.75
2019-03-31T09:20:57.019Z,7.08
2019-03-31T09:23:26.746Z,7.83
2019-03-31T09:25:56.426Z,6.85
2019-03-31T09:28:26.163Z,7.58
2019-03-31T09:30:55.787Z,7.92
2019-03-31T09:33:25.037Z,7.20
2019-03-31T09:35:54.249Z,6.95
2019-03-31T09:38:23.483Z,6.42
2019-03-31T09:40:52.997Z,6.60
2019-03-31T09:43:22.249Z,5.87
2019-03-31T09:45:51.796Z,6.45
2019-03-31T09:48:21.018Z,6.10
2019-03-31T09:50:50.562Z,7.08
2019-03-31T09:53:20.209Z,6.00
2019-03-31T09:55:49.780Z,6.65
2019-03-31T09:58:19.130Z,5.53
2019-03-31T10:00:50.011Z,5.72
2019-03-31T10:03:20.058Z,6.77
2019-03-31T10:05:49.615Z,7.30
2019-03-31T10:08:21.981Z,6.50
2019-03-31T10:10:52.387Z,4.78
2019-03-31T10:13:22.551Z,4.85
2019-03-31T10:15:52.206Z,5.67
2019-03-31T10:18:21.698Z,6.08
2019-03-31T10:20:50.943Z,6.22
2019-03-31T10:23:20.179Z,4.85
2019-03-31T10:25:49.423Z,5.60
2019-03-31T10:28:18.699Z,5.45
2019-03-31T10:30:49.300Z,5.25
2019-03-31T10:33:19.484Z,5.33
2019-03-31T10:35:49.507Z,5.03
2019-03-31T10:38:19.078Z,3.87
2019-03-31T10:40:48.412Z,3.08
2019-03-31T10:43:17.642Z,2.92
2019-03-31T10:45:46.949Z,3.20
2019-03-31T10:48:20.775Z,3.30
2019-03-31T10:50:48.010Z,3.50
2019-03-31T10:53:17.485Z,3.85
2019-03-31T10:55:46.738Z,3.80
2019-03-31T10:58:15.946Z,4.47
2019-03-31T11:00:45.922Z,3.50
2019-03-31T11:03:15.439Z,2.83
2019-03-31T11:05:45.067Z,3.20
2019-03-31T11:08:14.662Z,3.75
2019-03-31T11:10:43.901Z,4.10
2019-03-31T11:13:13.400Z,3.47
2019-03-31T11:15:43.181Z,3.17
2019-03-31T11:18:12.460Z,3.70
2019-03-31T11:20:41.875Z,3.52
2019-03-31T11:23:22.748Z,3.42
2019-03-31T11:25:52.795Z,3.25
2019-03-31T11:28:22.469Z,2.90
2019-03-31T11:30:51.879Z,3.10
2019-03-31T11:33:21.934Z,2.74
2019-03-31T11:35:54.219Z,3.45
2019-03-31T11:38:23.532Z,2.83
2019-03-31T11:40:52.832Z,3.12
2019-03-31T11:43:22.062Z,3.40
2019-03-31T11:45:51.482Z,3.92
2019-03-31T11:48:22.053Z,3.40
2019-03-31T11:50:51.337Z,3.27
2019-03-31T11:53:21.246Z,2.30
2019-03-31T11:55:50.831Z,2.92
2019-03-31T11:58:21.260Z,3.25
2019-03-31T12:00:52.952Z,2.60
2019-03-31T12:03:22.341Z,3.10
2019-03-31T12:05:56.502Z,2.37
2019-03-31T12:08:28.457Z,2.92
2019-03-31T12:10:58.498Z,2.57
2019-03-31T12:13:32.744Z,2.20
2019-03-31T12:16:02.363Z,2.90
2019-03-31T12:18:32.177Z,2.08
2019-03-31T12:21:01.744Z,1.70
2019-03-31T12:23:31.045Z,2.17
2019-03-31T12:26:00.670Z,2.27
2019-03-31T12:28:30.173Z,2.08
2019-03-31T12:30:59.453Z,2.12
2019-03-31T12:33:28.713Z,1.72
2019-03-31T12:35:58.056Z,1.42
2019-03-31T12:38:27.364Z,1.25
2019-03-31T12:40:56.636Z,1.75
2019-03-31T12:43:25.877Z,1.15
2019-03-31T12:45:55.305Z,1.92
2019-03-31T12:48:24.841Z,1.05
2019-03-31T12:50:54.374Z,1.20
2019-03-31T12:53:23.740Z,1.10
2019-03-31T12:55:59.875Z,0.90
2019-03-31T12:58:24.330Z,1.30
2019-03-31T13:00:53.659Z,1.07
2019-03-31T13:03:23.197Z,0.93
2019-03-31T13:05:52.402Z,0.93
2019-03-31T13:08:21.946Z,1.05
2019-03-31T13:10:51.195Z,0.90
2019-03-31T13:13:20.421Z,0.78
2019-03-31T13:15:49.792Z,1.35
2019-03-31T13:18:19.125Z,1.20
2019-03-31T13:20:50.270Z,1.30
2019-03-31T13:23:20.569Z,0.93
2019-03-31T13:25:49.954Z,0.72
2019-03-31T13:28:19.186Z,1.20
2019-03-31T13:30:48.716Z,0.88
2019-03-31T13:33:17.988Z,1.05
2019-03-31T13:35:48.847Z,0.82
2019-03-31T13:38:18.433Z,0.90
2019-03-31T13:40:50.477Z,1.02
2019-03-31T13:43:18.890Z,1.12
2019-03-31T13:45:48.836Z,1.10
2019-03-31T13:48:18.140Z,1.22
2019-03-31T13:50:47.459Z,0.90
2019-03-31T13:53:16.866Z,0.70
2019-03-31T13:55:46.345Z,0.80
2019-03-31T13:58:19.353Z,0.72
2019-03-31T14:00:50.376Z,0.77
2019-03-31T14:03:19.898Z,0.95
2019-03-31T14:05:50.871Z,1.20
2019-03-31T14:08:26.053Z,1.02
2019-03-31T14:10:51.262Z,1.10
2019-03-31T14:13:21.480Z,1.07
2019-03-31T14:15:51.094Z,0.98
2019-03-31T14:18:21.107Z,0.90
2019-03-31T14:20:50.418Z,0.80
2019-03-31T14:23:20.180Z,1.00
2019-03-31T14:25:50.003Z,0.98
2019-03-31T14:28:19.283Z,1.47
2019-03-31T14:30:49.044Z,1.10
2019-03-31T14:33:18.302Z,0.82
2019-03-31T14:35:48.697Z,1.32
2019-03-31T14:38:18.121Z,1.10
2019-03-31T14:40:47.629Z,0.88
2019-03-31T14:43:16.934Z,1.98
2019-03-31T14:45:46.278Z,1.15
2019-03-31T14:48:15.547Z,1.15
2019-03-31T14:50:44.833Z,1.47
2019-03-31T14:53:14.216Z,1.20
2019-03-31T14:55:43.723Z,1.17
2019-03-31T14:58:13.220Z,1.20
2019-03-31T15:00:42.865Z,1.47
2019-03-31T15:03:12.163Z,1.02
2019-03-31T15:05:41.469Z,0.88
2019-03-31T15:08:10.872Z,1.02
2019-03-31T15:10:40.290Z,0.98
2019-03-31T15:13:09.678Z,0.88
2019-03-31T15:15:39.542Z,0.70
2019-03-31T15:18:45.841Z,1.75
2019-03-31T15:21:15.481Z,0.82
2019-03-31T15:24:00.638Z,1.07
2019-03-31T15:26:31.289Z,0.90
2019-03-31T15:29:01.033Z,1.00
2019-03-31T15:31:30.562Z,0.85
2019-03-31T15:34:00.849Z,1.02
2019-03-31T15:36:32.889Z,0.80
2019-03-31T15:39:08.852Z,0.70
2019-03-31T15:41:33.159Z,0.88
2019-03-31T15:44:02.908Z,0.75
2019-03-31T15:46:32.239Z,0.57
2019-03-31T15:49:01.621Z,0.75
2019-03-31T15:51:46.093Z,0.65
2019-03-31T15:54:15.831Z,0.60
2019-03-31T15:56:45.414Z,0.33
2019-03-31T15:59:14.651Z,0.68
2019-03-31T16:01:43.975Z,0.63
2019-03-31T16:04:13.551Z,1.00
2019-03-31T16:06:42.918Z,1.00
2019-03-31T16:09:22.820Z,1.17
2019-03-31T16:11:53.163Z,0.70
2019-03-31T16:14:12.851Z,0.80
2019-03-31T16:16:41.601Z,0.90
2019-03-31T16:19:10.690Z,0.70
2019-03-31T16:21:39.453Z,0.47
2019-03-31T16:24:08.233Z,0.98
2019-03-31T16:26:37.182Z,0.80
2019-03-31T16:29:06.082Z,0.75
2019-03-31T16:31:34.793Z,0.72
2019-03-31T16:34:03.483Z,0.85
2019-03-31T16:36:32.417Z,0.80
2019-03-31T16:39:01.537Z,0.97
2019-03-31T16:41:30.290Z,0.45
2019-03-31T16:44:12.189Z,0.47
2019-03-31T16:46:41.999Z,0.95
2019-03-31T16:49:11.474Z,0.77
2019-03-31T16:51:41.542Z,0.93
2019-03-31T16:54:15.056Z,1.17
2019-03-31T16:56:43.765Z,1.70
2019-03-31T16:59:12.862Z,1.98
2019-03-31T17:01:41.610Z,1.07
2019-03-31T17:04:13.091Z,0.87
2019-03-31T17:06:42.299Z,0.53
2019-03-31T17:09:11.071Z,1.00
2019-03-31T17:11:39.757Z,0.70
2019-03-31T17:14:08.780Z,0.98
2019-03-31T17:16:38.896Z,0.80
2019-03-31T17:19:07.820Z,0.75
2019-03-31T17:21:36.514Z,0.93
2019-03-31T17:24:05.217Z,1.00
2019-03-31T17:26:33.988Z,0.60
2019-03-31T17:29:02.797Z,1.10
2019-03-31T17:31:33.028Z,1.20
2019-03-31T17:34:01.693Z,0.70
2019-03-31T17:36:30.457Z,1.30
2019-03-31T17:38:59.202Z,0.47
2019-03-31T17:41:27.950Z,0.65
2019-03-31T17:43:57.174Z,1.00
2019-03-31T17:46:26.054Z,1.20
2019-03-31T17:48:55.018Z,1.37
2019-03-31T17:51:23.716Z,1.17
2019-03-31T17:53:52.803Z,2.50
2019-03-31T17:56:21.502Z,1.30
2019-03-31T17:58:50.579Z,1.03
2019-03-31T18:01:19.236Z,0.93
2019-03-31T18:03:48.141Z,1.37
2019-03-31T18:06:16.924Z,0.90
2019-03-31T18:08:45.578Z,1.10
2019-03-31T18:11:14.270Z,0.80
2019-03-31T18:13:43.262Z,0.90
2019-03-31T18:16:11.950Z,1.13
2019-03-31T18:18:40.637Z,1.90
2019-03-31T18:21:09.666Z,1.10
2019-03-31T18:23:38.498Z,1.00
2019-03-31T18:26:07.509Z,1.90
2019-03-31T18:28:36.826Z,0.85
2019-03-31T18:31:05.730Z,0.80
2019-03-31T18:33:35.030Z,1.03
2019-03-31T18:36:03.934Z,5.03
2019-03-31T18:38:32.856Z,1.50
2019-03-31T18:41:03.641Z,1.33
2019-03-31T18:43:32.004Z,1.30
2019-03-31T18:46:00.811Z,1.17
2019-03-31T18:48:29.552Z,1.30
2019-03-31T18:50:58.274Z,1.10
2019-03-31T18:53:46.696Z,1.47
2019-03-31T18:56:40.999Z,1.30
2019-03-31T18:59:27.502Z,1.03
2019-03-31T19:02:16.502Z,1.80
2019-03-31T19:05:16.590Z,1.17
2019-03-31T19:08:20.182Z,0.97
2019-03-31T19:10:58.245Z,2.47
2019-03-31T19:13:55.209Z,0.93
2019-03-31T19:16:41.702Z,1.20
2019-03-31T19:19:24.056Z,1.07
2019-03-31T19:22:15.286Z,0.90
2019-03-31T19:25:08.707Z,1.33
2019-03-31T19:28:09.037Z,1.13
2019-03-31T19:31:12.332Z,1.77
2019-03-31T19:34:06.414Z,1.37
2019-03-31T19:36:46.377Z,1.20
2019-03-31T19:39:41.892Z,0.70
2019-03-31T19:42:38.679Z,1.33
2019-03-31T19:45:24.035Z,1.10
2019-03-31T19:48:04.800Z,1.00
2019-03-31T19:50:51.417Z,1.00
2019-03-31T19:53:29.062Z,1.40
2019-03-31T19:56:14.453Z,1.10
2019-03-31T19:59:07.558Z,1.40
2019-03-31T20:01:58.162Z,1.13
2019-03-31T20:04:52.158Z,1.33
2019-03-31T20:07:40.033Z,1.47
2019-03-31T20:10:32.310Z,1.30
2019-03-31T20:13:32.434Z,1.27
2019-03-31T20:16:19.768Z,1.07
2019-03-31T20:19:06.079Z,1.77
2019-03-31T20:21:44.074Z,1.23
2019-03-31T20:24:26.913Z,0.97
2019-03-31T20:27:06.454Z,1.27
2019-03-31T20:29:43.391Z,1.37
2019-03-31T20:32:29.748Z,1.00
2019-03-31T20:35:04.870Z,0.90
2019-03-31T20:37:45.640Z,1.13
2019-03-31T20:40:29.281Z,0.83
2019-03-31T20:43:08.801Z,1.37
2019-03-31T20:45:37.978Z,1.20
2019-03-31T20:48:06.702Z,1.07
2019-03-31T20:50:35.803Z,1.53
2019-03-31T20:53:04.618Z,0.77
2019-03-31T20:55:33.607Z,1.47
2019-03-31T20:58:02.620Z,0.93
2019-03-31T21:00:31.390Z,1.20
2019-03-31T21:03:00.061Z,1.60
2019-03-31T21:05:28.765Z,1.40
2019-03-31T21:07:57.736Z,1.10
2019-03-31T21:10:26.678Z,0.90
2019-03-31T21:12:55.734Z,1.97
2019-03-31T21:15:24.713Z,1.23
2019-03-31T21:17:53.499Z,1.10
2019-03-31T21:20:22.345Z,0.57
2019-03-31T21:22:51.129Z,0.90
2019-03-31T21:25:19.805Z,0.93
2019-03-31T21:27:49.012Z,1.23
2019-03-31T21:30:17.773Z,1.60
2019-03-31T21:32:46.437Z,1.10
2019-03-31T21:35:15.498Z,1.27
2019-03-31T21:37:44.190Z,1.23
2019-03-31T21:40:13.613Z,1.40
2019-03-31T21:42:42.365Z,1.13
2019-03-31T21:45:11.194Z,1.30
2019-03-31T21:47:40.158Z,1.20
2019-03-31T21:50:10.274Z,1.20
2019-03-31T21:52:38.925Z,1.20
2019-03-31T21:55:07.698Z,1.03
2019-03-31T21:57:37.031Z,0.90
2019-03-31T22:00:07.834Z,0.80
2019-03-31T22:02:36.759Z,1.20
2019-03-31T22:05:06.145Z,0.73
2019-03-31T22:07:35.013Z,1.20
2019-03-31T22:10:03.937Z,1.00
2019-03-31T22:12:32.826Z,1.20
2019-03-31T22:15:01.762Z,0.93
2019-03-31T22:17:30.571Z,0.93
2019-03-31T22:20:00.011Z,1.17
2019-03-31T22:22:29.134Z,1.57
2019-03-31T22:24:58.020Z,0.90
2019-03-31T22:27:26.752Z,1.10
2019-03-31T22:29:55.464Z,0.80
2019-03-31T22:32:24.155Z,0.73
2019-03-31T22:34:53.222Z,0.90
2019-03-31T22:37:22.253Z,0.53
2019-03-31T22:39:51.002Z,1.00
2019-03-31T22:42:20.065Z,0.77
2019-03-31T22:44:48.755Z,1.23
2019-03-31T22:47:17.437Z,1.13
2019-03-31T22:49:46.434Z,1.00
2019-03-31T22:52:15.142Z,1.13
2019-03-31T22:54:43.822Z,1.50
2019-03-31T22:57:12.550Z,1.20
2019-03-31T22:59:41.230Z,1.10
2019-03-31T23:02:09.921Z,1.33
2019-03-31T23:04:38.931Z,0.70
2019-03-31T23:07:07.790Z,1.00
2019-03-31T23:09:36.476Z,0.70
2019-03-31T23:12:05.190Z,0.80
2019-03-31T23:14:34.146Z,0.77
2019-03-31T23:17:03.315Z,0.80
2019-03-31T23:19:32.035Z,0.63
2019-03-31T23:22:00.991Z,0.98
2019-03-31T23:24:29.667Z,1.10
2019-03-31T23:26:58.665Z,1.07
2019-03-31T23:29:27.517Z,0.90
2019-03-31T23:31:56.455Z,1.17
2019-03-31T23:34:25.245Z,1.13
2019-03-31T23:36:53.962Z,1.27
2019-03-31T23:39:22.638Z,1.23
2019-03-31T23:41:51.900Z,1.30
2019-03-31T23:44:20.690Z,1.00
2019-03-31T23:46:49.628Z,1.00
2019-03-31T23:49:18.425Z,0.80
2019-03-31T23:51:47.114Z,1.00
2019-03-31T23:54:15.780Z,0.73
2019-03-31T23:56:45.201Z,0.80
2019-03-31T23:59:13.929Z,1.03
